Decoded Metar for LPBJ (BEJA in PORTUGAL) (IATA:N/A) | Meteo·Mobile Aviation Weather
aviador You're here:

LPBJ Decoded Metar

BEJA in PORTUGAL
Report Time2018-11-19 22:00:00
UTC Time2018-11-19 22:18:48
Flight Rules vfr VFR
Wind070° at 04 kt
W.Decomp.*RWY 01: 1.8 kt HW 3.6 kt RCW
W.Rank070° ranks 24
Current wind is below 070° avg. (5.7)
Visibility9999 m
Phenomena:N/A
Clouds:Scattered 040 Hf
Expected CloudBase > 400 ft AGL from Temp-Dew spread
CeilingNone
Temp13°C (ISA -0)
Dew Point12°C (94% RH)
AAT12.2°C
QNH1004 hPa
Density Alt1,260 ft
Elevation810 ft
Report Wrong Elevation
Raw Report
METAR LPBJ 192200Z 07004KT 9999 SCT040 13/12 Q1004=

Extra information for LPBJ:More info

Metar Taf Metar & Taf Last 4 Metars F.Rules Stats Wind Profile Meteogram Temp Stats Airport Information Weather charts Add Link Nearby VenuesMetar ALERT Operation Metar Decoded Social comments